Time;durP1;ratioP1;P1;durP2;ratioP2;P2;SDS_P1;SDS_P2;PMS_P1;PMS_P2;Temp;Humidity;BMP_temperature;BMP_pressure;BME280_temperature;BME280_humidity;BME280_pressure;Samples;Min_cycle;Max_cycle;Signal;HPM_P1;HPM_P2
2022/07/11 00:02:05;;;;;;;4.35;1.20;;;14.70;91.60;;;;;;5065263;28;20021;-78
2022/07/11 00:04:33;;;;;;;4.43;1.10;;;14.70;91.60;;;;;;5064206;28;20460;-77
2022/07/11 00:06:59;;;;;;;1.75;1.23;;;14.70;91.70;;;;;;5068021;28;20024;-77
2022/07/11 00:09:25;;;;;;;3.83;1.05;;;14.60;91.70;;;;;;5070847;28;20043;-77
2022/07/11 00:11:51;;;;;;;3.42;1.30;;;14.60;91.80;;;;;;5074793;28;20017;-77
2022/07/11 00:14:17;;;;;;;6.25;1.35;;;14.60;91.80;;;;;;5072672;28;20035;-77
2022/07/11 00:16:43;;;;;;;3.67;1.13;;;14.50;91.90;;;;;;5070240;28;20112;-80
2022/07/11 00:19:09;;;;;;;2.95;1.35;;;14.50;92.00;;;;;;5066784;28;20108;-79
2022/07/11 00:21:36;;;;;;;4.20;1.20;;;14.50;92.00;;;;;;5066448;28;20703;-78
2022/07/11 00:24:06;;;;;;;4.38;1.13;;;14.50;92.10;;;;;;5073844;28;20024;-79
2022/07/11 00:26:32;;;;;;;4.57;1.20;;;14.50;92.10;;;;;;5068143;28;20503;-80
2022/07/11 00:28:57;;;;;;;3.20;1.10;;;14.50;92.10;;;;;;5071112;28;20029;-80
2022/07/11 00:31:23;;;;;;;2.30;1.38;;;14.50;92.10;;;;;;5072209;28;20057;-80
2022/07/11 00:33:49;;;;;;;3.92;1.10;;;14.50;92.20;;;;;;5075300;28;20034;-79
2022/07/11 00:36:15;;;;;;;5.65;1.48;;;14.50;92.20;;;;;;5060060;28;20031;-80
2022/07/11 00:38:41;;;;;;;4.72;1.40;;;14.50;92.20;;;;;;5050410;28;20036;-80
2022/07/11 00:41:07;;;;;;;2.55;0.90;;;14.60;92.20;;;;;;5075709;28;20032;-78
2022/07/11 00:43:37;;;;;;;3.08;1.38;;;14.60;92.20;;;;;;5074526;28;20436;-79
2022/07/11 00:46:04;;;;;;;3.55;1.08;;;14.60;92.20;;;;;;5073628;28;20023;-79
2022/07/11 00:48:30;;;;;;;2.72;1.35;;;14.60;92.20;;;;;;5052916;28;20543;-79
2022/07/11 00:50:57;;;;;;;4.40;1.20;;;14.60;92.30;;;;;;5069584;28;20077;-79
2022/07/11 00:53:24;;;;;;;4.43;1.40;;;14.60;92.30;;;;;;5069048;28;20063;-79
2022/07/11 00:55:55;;;;;;;2.15;0.98;;;14.60;92.30;;;;;;5065829;28;20021;-79
2022/07/11 00:58:21;;;;;;;4.22;1.33;;;14.60;92.40;;;;;;5076614;28;20023;-80
2022/07/11 01:00:48;;;;;;;4.40;1.17;;;14.60;92.40;;;;;;5071414;28;20028;-80
2022/07/11 01:03:13;;;;;;;2.83;1.30;;;14.60;92.40;;;;;;5052492;28;20158;-79
2022/07/11 01:05:39;;;;;;;3.08;1.00;;;14.60;92.40;;;;;;5066072;28;20437;-80
2022/07/11 01:08:05;;;;;;;1.85;1.00;;;14.60;92.40;;;;;;5066607;28;20032;-79
2022/07/11 01:10:31;;;;;;;3.67;1.15;;;14.60;92.30;;;;;;5070845;28;20043;-79
2022/07/11 01:12:57;;;;;;;4.50;1.25;;;14.60;92.40;;;;;;5048960;28;20111;-79
2022/07/11 01:15:24;;;;;;;2.15;1.02;;;14.60;92.40;;;;;;5064307;28;20115;-80
2022/07/11 01:17:52;;;;;;;5.75;1.10;;;14.60;92.40;;;;;;5063652;28;20032;-79
2022/07/11 01:20:22;;;;;;;1.83;0.80;;;14.60;92.50;;;;;;5073388;28;20463;-79
2022/07/11 01:22:52;;;;;;;1.20;0.90;;;14.60;92.50;;;;;;5072771;28;20028;-79
2022/07/11 01:25:31;;;;;;;3.38;1.05;;;14.60;92.50;;;;;;5069619;28;20037;-78
2022/07/11 01:28:06;;;;;;;2.88;1.27;;;14.60;92.50;;;;;;5066915;28;20035;-78
2022/07/11 01:30:32;;;;;;;3.45;1.02;;;14.60;92.60;;;;;;5069087;28;20028;-79
2022/07/11 01:32:59;;;;;;;1.65;0.85;;;14.60;92.60;;;;;;5066983;28;20032;-79
2022/07/11 01:35:26;;;;;;;3.72;1.27;;;14.60;92.60;;;;;;5072327;28;20021;-79
2022/07/11 01:37:51;;;;;;;4.30;1.30;;;14.60;92.60;;;;;;5052484;28;20027;-79
2022/07/11 01:40:17;;;;;;;4.32;1.13;;;14.60;92.60;;;;;;5070485;28;20020;-80
2022/07/11 01:42:43;;;;;;;1.55;0.77;;;14.70;92.60;;;;;;5068199;28;20027;-79
2022/07/11 01:45:10;;;;;;;2.78;1.15;;;14.70;92.60;;;;;;5069378;28;20204;-79
2022/07/11 01:47:37;;;;;;;2.28;1.00;;;14.60;92.60;;;;;;5067260;28;20032;-79
2022/07/11 01:50:03;;;;;;;2.47;1.10;;;14.70;92.70;;;;;;5070987;28;20074;-79
2022/07/11 01:52:29;;;;;;;2.28;0.90;;;14.70;92.70;;;;;;5069277;28;20020;-79
2022/07/11 01:54:55;;;;;;;2.95;0.90;;;14.70;92.70;;;;;;5073475;28;20024;-78
2022/07/11 01:57:21;;;;;;;2.70;0.90;;;14.70;92.70;;;;;;5076222;28;20059;-77
2022/07/11 01:59:46;;;;;;;2.75;1.00;;;14.60;92.80;;;;;;5081895;28;20035;-79
2022/07/11 02:02:13;;;;;;;2.38;1.38;;;14.60;92.80;;;;;;5097873;28;20039;-78
2022/07/11 02:04:39;;;;;;;2.03;1.00;;;14.70;92.90;;;;;;5078564;28;20051;-78
2022/07/11 02:07:05;;;;;;;3.72;1.30;;;14.60;93.00;;;;;;5079288;28;20080;-78
2022/07/11 02:09:30;;;;;;;4.88;1.35;;;14.70;93.20;;;;;;5051726;28;20020;-78
2022/07/11 02:11:56;;;;;;;2.70;1.33;;;14.60;93.30;;;;;;5067900;28;20480;-78
2022/07/11 02:14:22;;;;;;;2.28;1.30;;;14.70;93.40;;;;;;5071435;28;20031;-78
2022/07/11 02:16:48;;;;;;;2.28;1.10;;;14.60;93.40;;;;;;5069494;28;20024;-78
2022/07/11 02:19:13;;;;;;;2.55;0.88;;;14.60;93.40;;;;;;5075158;28;20021;-79
2022/07/11 02:21:39;;;;;;;2.75;1.38;;;14.60;93.30;;;;;;5068095;28;20091;-79
2022/07/11 02:24:05;;;;;;;2.85;1.30;;;14.60;93.50;;;;;;5072429;28;20028;-79
2022/07/11 02:26:31;;;;;;;2.63;0.98;;;14.60;93.60;;;;;;5069500;28;20029;-79
2022/07/11 02:28:57;;;;;;;0.90;0.80;;;14.60;93.60;;;;;;5067606;28;20061;-79
2022/07/11 02:31:23;;;;;;;1.98;0.80;;;14.50;93.50;;;;;;5074471;28;20086;-79
2022/07/11 02:33:49;;;;;;;1.92;0.85;;;14.50;93.40;;;;;;5207214;22;20043;-80
2022/07/11 02:36:14;;;;;;;2.47;0.80;;;14.50;93.40;;;;;;5086720;28;20115;-81
2022/07/11 02:38:42;;;;;;;3.85;1.20;;;14.50;93.40;;;;;;5091744;28;20081;-80
2022/07/11 02:41:07;;;;;;;1.45;1.10;;;14.40;93.30;;;;;;5067038;28;20028;-80
2022/07/11 02:43:33;;;;;;;3.35;1.00;;;14.40;93.30;;;;;;5077160;28;20477;-81
2022/07/11 02:45:59;;;;;;;3.97;1.27;;;14.40;93.30;;;;;;5072981;28;20774;-77
2022/07/11 02:48:24;;;;;;;3.25;1.20;;;14.40;93.40;;;;;;5071070;28;20120;-81
2022/07/11 02:50:51;;;;;;;5.50;1.17;;;14.40;93.40;;;;;;5071937;28;20488;-80
2022/07/11 02:53:17;;;;;;;3.00;1.55;;;14.30;93.50;;;;;;5071256;28;20020;-79
2022/07/11 02:55:43;;;;;;;2.85;1.05;;;14.30;93.60;;;;;;5072861;28;20028;-80
2022/07/11 02:58:08;;;;;;;2.22;1.00;;;14.30;93.60;;;;;;5073233;28;20023;-81
2022/07/11 03:00:34;;;;;;;2.47;1.00;;;14.30;93.60;;;;;;5070015;28;20037;-80
2022/07/11 03:03:01;;;;;;;4.00;1.50;;;14.30;93.60;;;;;;5071615;28;20075;-79
2022/07/11 03:05:27;;;;;;;2.95;0.95;;;14.30;93.70;;;;;;5060079;28;20830;-81
2022/07/11 03:07:53;;;;;;;2.63;1.17;;;14.30;93.70;;;;;;5080875;28;20046;-81
2022/07/11 03:10:19;;;;;;;4.15;1.00;;;14.30;93.90;;;;;;5069235;28;20028;-78
2022/07/11 03:12:45;;;;;;;2.22;1.42;;;14.30;93.90;;;;;;5053347;28;20025;-79
2022/07/11 03:15:11;;;;;;;3.45;1.00;;;14.30;94.00;;;;;;5068915;28;20039;-80
2022/07/11 03:17:37;;;;;;;1.98;0.90;;;14.30;94.20;;;;;;5075052;28;20031;-78
2022/07/11 03:20:05;;;;;;;2.33;1.35;;;14.30;94.20;;;;;;5072539;28;20109;-81
2022/07/11 03:22:31;;;;;;;3.97;1.60;;;14.30;94.40;;;;;;5072528;28;20040;-79
2022/07/11 03:24:56;;;;;;;3.78;1.48;;;14.30;94.50;;;;;;5070892;28;20032;-81
2022/07/11 03:27:22;;;;;;;4.25;1.35;;;14.30;94.60;;;;;;5070589;28;20028;-78
2022/07/11 03:29:48;;;;;;;4.75;1.30;;;14.30;94.70;;;;;;5070813;28;20040;-81
2022/07/11 03:32:14;;;;;;;6.20;1.63;;;14.30;94.70;;;;;;5055214;28;20158;-81
2022/07/11 03:34:39;;;;;;;8.80;1.50;;;14.30;94.70;;;;;;5068324;28;20103;-81
2022/07/11 03:37:05;;;;;;;2.88;1.10;;;14.30;94.70;;;;;;5065060;28;20428;-80
2022/07/11 03:39:31;;;;;;;4.55;1.10;;;14.40;94.70;;;;;;5056956;28;20061;-80
2022/07/11 03:41:57;;;;;;;2.70;0.85;;;14.40;94.70;;;;;;5070407;28;20038;-81
2022/07/11 03:44:23;;;;;;;1.95;1.10;;;14.30;94.60;;;;;;5072149;28;20032;-80
2022/07/11 03:46:49;;;;;;;2.97;0.90;;;14.40;94.50;;;;;;5069939;28;20069;-80
2022/07/11 03:49:15;;;;;;;4.38;1.10;;;14.40;94.30;;;;;;5067872;28;20032;-80
2022/07/11 03:51:41;;;;;;;2.58;1.08;;;14.30;94.40;;;;;;5066771;28;20050;-80
2022/07/11 03:54:07;;;;;;;3.08;1.23;;;14.30;94.10;;;;;;5070474;28;20033;-80
2022/07/11 03:56:33;;;;;;;4.18;1.10;;;14.30;94.00;;;;;;5045953;28;20035;-81
2022/07/11 03:58:59;;;;;;;2.92;0.80;;;14.30;94.10;;;;;;5049562;28;20028;-80
2022/07/11 04:01:25;;;;;;;3.70;1.10;;;14.20;94.10;;;;;;5051706;28;20049;-79
2022/07/11 04:03:50;;;;;;;1.48;0.88;;;14.20;94.20;;;;;;5069302;28;20127;-80
2022/07/11 04:06:16;;;;;;;3.65;1.20;;;14.20;94.30;;;;;;5075961;28;20541;-80
2022/07/11 04:08:42;;;;;;;3.25;0.95;;;14.20;94.40;;;;;;5071365;28;20028;-80
2022/07/11 04:11:08;;;;;;;2.15;1.00;;;14.20;94.40;;;;;;5064760;28;21039;-81
2022/07/11 04:13:33;;;;;;;2.20;1.10;;;14.20;94.40;;;;;;5075003;28;20073;-80
2022/07/11 04:15:59;;;;;;;2.22;1.13;;;14.20;94.60;;;;;;5070256;28;20024;-80
2022/07/11 04:18:25;;;;;;;3.33;1.20;;;14.20;94.60;;;;;;5050317;28;20040;-80
2022/07/11 04:20:50;;;;;;;3.15;0.90;;;14.20;94.60;;;;;;5074085;28;20025;-80
2022/07/11 04:23:16;;;;;;;5.78;0.77;;;14.20;94.50;;;;;;5062107;28;20480;-80
2022/07/11 04:25:42;;;;;;;1.60;1.05;;;14.20;94.60;;;;;;5067257;28;20090;-80
2022/07/11 04:28:08;;;;;;;2.95;1.20;;;14.30;94.60;;;;;;5070167;28;20025;-80
2022/07/11 04:30:33;;;;;;;2.30;0.90;;;14.20;94.60;;;;;;5070718;28;20089;-80
2022/07/11 04:33:00;;;;;;;3.85;1.23;;;14.30;94.80;;;;;;5069634;28;20024;-79
2022/07/11 04:35:27;;;;;;;4.18;1.40;;;14.30;94.80;;;;;;5068068;28;20035;-79
2022/07/11 04:37:53;;;;;;;4.93;1.70;;;14.30;94.80;;;;;;5075281;28;20070;-78
2022/07/11 04:40:20;;;;;;;4.72;2.28;;;14.30;94.90;;;;;;5077290;28;20480;-79
2022/07/11 04:42:46;;;;;;;3.75;1.83;;;14.30;95.10;;;;;;5075315;28;20024;-76
2022/07/11 04:45:12;;;;;;;7.13;2.38;;;14.40;95.70;;;;;;5067879;28;20039;-76
2022/07/11 04:47:38;;;;;;;3.80;2.10;;;14.40;95.70;;;;;;5075782;28;20612;-76
2022/07/11 04:50:04;;;;;;;3.78;2.53;;;14.50;95.80;;;;;;5070273;28;20635;-80
2022/07/11 04:52:29;;;;;;;4.90;2.10;;;14.60;95.80;;;;;;5050654;28;20029;-77
2022/07/11 04:54:55;;;;;;;3.45;1.75;;;14.70;95.80;;;;;;5068552;28;20118;-76
2022/07/11 04:57:21;;;;;;;5.82;2.50;;;14.80;95.80;;;;;;5069119;28;20025;-76
2022/07/11 04:59:46;;;;;;;2.70;2.10;;;14.80;95.70;;;;;;5070070;28;20021;-76
2022/07/11 05:02:12;;;;;;;4.55;1.90;;;14.90;95.60;;;;;;5070462;28;20055;-77
2022/07/11 05:04:37;;;;;;;2.67;1.58;;;14.90;95.50;;;;;;5068644;28;20104;-77
2022/07/11 05:07:03;;;;;;;6.57;1.67;;;15.00;95.30;;;;;;5064797;28;20027;-77
2022/07/11 05:09:29;;;;;;;5.00;1.63;;;15.10;95.20;;;;;;5074551;28;20714;-76
2022/07/11 05:11:55;;;;;;;2.53;1.20;;;15.10;95.20;;;;;;5072188;28;20537;-77
2022/07/11 05:14:20;;;;;;;2.33;1.10;;;15.20;94.80;;;;;;5068225;28;20074;-77
2022/07/11 05:16:46;;;;;;;3.42;1.10;;;15.20;94.30;;;;;;5072699;28;20052;-76
2022/07/11 05:19:11;;;;;;;2.38;1.08;;;15.30;94.20;;;;;;5052637;28;20466;-76
2022/07/11 05:21:37;;;;;;;2.92;1.35;;;15.30;93.90;;;;;;5058164;28;20036;-76
2022/07/11 05:24:03;;;;;;;5.45;1.15;;;15.40;93.90;;;;;;5064627;28;20025;-77
2022/07/11 05:26:29;;;;;;;3.05;1.40;;;15.40;94.00;;;;;;5063799;28;20104;-80
2022/07/11 05:28:54;;;;;;;5.43;1.52;;;15.40;93.70;;;;;;5071004;28;20066;-80
2022/07/11 05:31:20;;;;;;;4.07;1.15;;;15.50;93.60;;;;;;5068785;28;20029;-79
2022/07/11 05:33:46;;;;;;;2.40;1.20;;;15.50;93.50;;;;;;5066558;28;20460;-80
2022/07/11 05:36:12;;;;;;;5.68;1.40;;;15.60;93.50;;;;;;5070323;28;20028;-82
2022/07/11 05:38:38;;;;;;;4.07;1.65;;;15.70;93.40;;;;;;5067314;28;20408;-79
2022/07/11 05:41:04;;;;;;;3.10;1.20;;;15.80;93.30;;;;;;5065365;28;20051;-79
2022/07/11 05:43:30;;;;;;;1.80;1.23;;;15.90;93.10;;;;;;5065802;28;20035;-78
2022/07/11 05:45:56;;;;;;;2.55;1.42;;;15.90;93.00;;;;;;5077980;28;20036;-80
2022/07/11 05:48:21;;;;;;;4.95;1.30;;;16.00;92.90;;;;;;5064790;28;20037;-80
2022/07/11 05:50:47;;;;;;;3.80;1.50;;;16.20;92.80;;;;;;5062419;28;20119;-80
2022/07/11 05:53:12;;;;;;;3.05;1.20;;;16.40;92.70;;;;;;5068257;28;20396;-80
2022/07/11 05:55:38;;;;;;;3.08;1.30;;;16.60;92.40;;;;;;5073566;28;20099;-79
2022/07/11 05:58:04;;;;;;;3.30;1.63;;;16.80;92.00;;;;;;5060841;28;20459;-81
2022/07/11 06:00:29;;;;;;;3.55;1.23;;;17.00;91.70;;;;;;5066028;28;20041;-82
2022/07/11 06:02:55;;;;;;;3.42;1.00;;;17.20;91.30;;;;;;5068642;28;20024;-80
2022/07/11 06:05:21;;;;;;;4.82;1.40;;;17.30;90.90;;;;;;5054029;28;20033;-79
2022/07/11 06:10:32;;;;;;;;;;;17.60;90.60;;;;;;5063116;28;20043;-80
2022/07/11 06:12:58;;;;;;;11.75;1.90;;;17.80;90.30;;;;;;5059113;28;19936;-80
2022/07/11 06:15:24;;;;;;;2.03;1.45;;;18.00;90.00;;;;;;5036978;28;20024;-78
2022/07/11 06:17:50;;;;;;;4.35;1.42;;;18.10;89.80;;;;;;5044085;28;20149;-79
2022/07/11 06:20:16;;;;;;;4.28;1.80;;;18.20;89.30;;;;;;5060388;28;20028;-80
2022/07/11 06:22:41;;;;;;;4.68;1.70;;;18.40;89.00;;;;;;5068040;28;20102;-80
2022/07/11 06:25:09;;;;;;;6.50;2.03;;;18.40;88.50;;;;;;5077074;28;20103;-79
2022/07/11 06:27:35;;;;;;;3.72;1.92;;;18.60;88.50;;;;;;5068434;28;20028;-79
2022/07/11 06:30:01;;;;;;;3.45;1.80;;;18.50;88.20;;;;;;5046827;28;20032;-80
2022/07/11 06:32:26;;;;;;;5.85;2.67;;;18.50;88.40;;;;;;5049881;28;20472;-80
2022/07/11 06:34:52;;;;;;;5.75;2.70;;;18.30;88.70;;;;;;5063421;28;20028;-78
2022/07/11 06:37:18;;;;;;;2.83;1.90;;;18.30;89.80;;;;;;5063332;28;20021;-79
2022/07/11 06:39:44;;;;;;;6.30;2.03;;;18.30;89.50;;;;;;5049875;28;20029;-79
2022/07/11 06:42:10;;;;;;;8.48;2.50;;;18.30;89.70;;;;;;5060925;28;20016;-79
2022/07/11 06:44:35;;;;;;;4.38;2.22;;;18.30;90.00;;;;;;5039184;28;20218;-79
2022/07/11 06:47:01;;;;;;;4.25;2.13;;;18.30;90.10;;;;;;5056417;28;20043;-79
2022/07/11 06:49:27;;;;;;;5.93;2.70;;;18.30;90.30;;;;;;5065984;28;20075;-79
2022/07/11 06:51:52;;;;;;;4.78;2.60;;;18.30;90.20;;;;;;5066549;28;20056;-79
2022/07/11 06:54:18;;;;;;;3.78;2.78;;;18.30;90.10;;;;;;5063262;28;20035;-79
2022/07/11 06:56:44;;;;;;;6.30;2.92;;;18.30;90.10;;;;;;5067028;28;20032;-80
2022/07/11 06:59:09;;;;;;;5.65;2.67;;;18.30;90.10;;;;;;5071375;28;23835;-82
2022/07/11 07:01:35;;;;;;;6.82;3.13;;;18.30;90.20;;;;;;5065662;28;20032;-81
2022/07/11 07:04:01;;;;;;;4.85;3.13;;;18.20;90.10;;;;;;5071949;28;20037;-81
2022/07/11 07:06:26;;;;;;;6.65;3.22;;;18.20;90.50;;;;;;5068024;28;20107;-81
2022/07/11 07:08:52;;;;;;;8.85;2.97;;;18.20;90.30;;;;;;5067030;28;20075;-81
2022/07/11 07:11:19;;;;;;;4.07;2.47;;;18.20;90.20;;;;;;5072457;28;20024;-81
2022/07/11 07:13:45;;;;;;;5.82;2.45;;;18.30;90.20;;;;;;5069735;28;20026;-82
2022/07/11 07:16:11;;;;;;;8.95;2.70;;;18.30;90.20;;;;;;5075583;28;20021;-81
2022/07/11 07:18:42;;;;;;;7.35;3.22;;;18.40;90.30;;;;;;5071378;28;20036;-81
2022/07/11 07:21:08;;;;;;;6.03;2.90;;;18.40;90.30;;;;;;5068762;28;20432;-82
2022/07/11 07:23:33;;;;;;;4.82;3.05;;;18.50;90.40;;;;;;5068866;28;20082;-81
2022/07/11 07:25:59;;;;;;;10.02;3.42;;;18.50;90.40;;;;;;5069221;28;20056;-81
2022/07/11 07:28:28;;;;;;;4.82;3.20;;;18.50;90.50;;;;;;5072432;28;20476;-82
2022/07/11 07:30:54;;;;;;;5.00;3.70;;;18.50;90.50;;;;;;5071504;28;20499;-80
2022/07/11 07:33:19;;;;;;;6.63;3.70;;;18.50;90.50;;;;;;5091418;28;20020;-81
2022/07/11 07:35:45;;;;;;;4.22;3.15;;;18.50;90.50;;;;;;5095477;28;20017;-80
2022/07/11 07:38:11;;;;;;;7.22;3.30;;;18.50;90.60;;;;;;5103034;28;20287;-80
2022/07/11 07:40:36;;;;;;;5.47;3.55;;;18.50;90.60;;;;;;5092799;28;20051;-81
2022/07/11 07:43:02;;;;;;;5.32;3.25;;;18.60;90.60;;;;;;5092984;28;20028;-81
2022/07/11 07:45:28;;;;;;;5.00;3.38;;;18.70;90.50;;;;;;5090281;28;20404;-80
2022/07/11 07:47:53;;;;;;;4.68;2.80;;;18.80;90.40;;;;;;5088694;28;20013;-81
2022/07/11 07:50:20;;;;;;;4.22;2.88;;;18.90;90.20;;;;;;5086438;28;20032;-81
2022/07/11 07:52:46;;;;;;;4.97;3.20;;;19.00;90.00;;;;;;5055143;28;20032;-82
2022/07/11 07:55:12;;;;;;;2.13;1.63;;;19.10;90.10;;;;;;5056918;28;20027;-84
2022/07/11 07:57:37;;;;;;;5.50;2.35;;;19.30;89.80;;;;;;5055981;28;20510;-83
2022/07/11 08:02:50;;;;;;;3.80;2.63;;;19.50;89.20;;;;;;5075170;28;20538;-83
2022/07/11 08:05:17;;;;;;;4.90;3.30;;;19.60;89.40;;;;;;5058754;28;20036;-81
2022/07/11 08:07:42;;;;;;;4.50;2.15;;;19.70;89.20;;;;;;5050215;28;20025;-81
2022/07/11 08:10:08;;;;;;;5.45;2.42;;;19.80;88.70;;;;;;5062577;28;20028;-80
2022/07/11 08:12:34;;;;;;;4.32;2.15;;;19.90;88.50;;;;;;5070291;28;20048;-80
2022/07/11 08:15:00;;;;;;;5.20;1.88;;;20.00;88.00;;;;;;5068937;28;20101;-80
2022/07/11 08:17:25;;;;;;;3.40;2.00;;;20.00;87.40;;;;;;5073548;28;20028;-80
2022/07/11 08:19:51;;;;;;;3.70;1.45;;;20.00;87.10;;;;;;5074194;28;20028;-80
2022/07/11 08:22:17;;;;;;;6.43;1.52;;;20.00;87.50;;;;;;5053467;28;20034;-80
2022/07/11 08:24:43;;;;;;;3.08;1.30;;;20.00;87.00;;;;;;5072612;28;20029;-80
2022/07/11 08:27:09;;;;;;;5.10;1.75;;;20.00;86.60;;;;;;5072352;28;20020;-80
2022/07/11 08:29:35;;;;;;;7.32;1.50;;;20.00;86.60;;;;;;5069956;28;20024;-80
2022/07/11 08:32:01;;;;;;;4.13;1.60;;;20.10;86.90;;;;;;5067841;28;20040;-79
2022/07/11 08:34:27;;;;;;;4.22;1.77;;;20.10;86.80;;;;;;5099856;22;20053;-80
2022/07/11 08:36:53;;;;;;;3.80;1.50;;;20.20;86.90;;;;;;5047416;28;20029;-80
2022/07/11 08:39:19;;;;;;;2.70;1.38;;;20.20;86.80;;;;;;5048767;28;20029;-81
2022/07/11 08:41:47;;;;;;;1.52;0.93;;;20.10;86.60;;;;;;5051355;28;20021;-81
2022/07/11 08:44:14;;;;;;;1.40;0.80;;;20.10;85.50;;;;;;5067208;28;20473;-80
2022/07/11 08:46:43;;;;;;;5.47;1.17;;;20.10;86.20;;;;;;5065869;28;20024;-81
2022/07/11 08:49:11;;;;;;;1.27;0.73;;;20.10;85.20;;;;;;5067881;28;20020;-81
2022/07/11 08:51:37;;;;;;;1.20;0.75;;;20.10;85.30;;;;;;5041039;28;20033;-81
2022/07/11 08:54:03;;;;;;;1.42;0.63;;;20.10;85.50;;;;;;5063774;28;20065;-81
2022/07/11 08:56:31;;;;;;;3.63;0.70;;;20.10;84.70;;;;;;5065968;28;20029;-79
2022/07/11 08:59:02;;;;;;;0.90;0.50;;;20.10;85.20;;;;;;5071267;28;20074;-81
2022/07/11 09:01:34;;;;;;;1.00;0.60;;;20.10;84.40;;;;;;5065357;28;20024;-81
2022/07/11 09:04:00;;;;;;;3.47;0.60;;;20.10;83.70;;;;;;5064858;28;20032;-82
2022/07/11 09:06:27;;;;;;;0.55;0.40;;;20.20;83.80;;;;;;5070690;28;20028;-82
2022/07/11 09:08:58;;;;;;;3.00;0.50;;;20.20;82.70;;;;;;5052806;28;20047;-82
2022/07/11 09:11:23;;;;;;;1.85;0.70;;;20.10;83.20;;;;;;5047553;28;20028;-82
2022/07/11 09:13:49;;;;;;;2.05;0.50;;;20.10;83.20;;;;;;5063655;28;20035;-82
2022/07/11 09:16:19;;;;;;;0.50;0.50;;;20.00;83.00;;;;;;5057547;28;20480;-82
2022/07/11 09:18:44;;;;;;;0.95;0.70;;;20.00;83.50;;;;;;5069084;28;20107;-82
2022/07/11 09:26:48;;;;;;;0.20;0.20;;;20.00;80.80;;;;;;5070033;28;20048;-82
2022/07/11 09:29:16;;;;;;;0.35;0.30;;;20.10;80.70;;;;;;5062350;28;20384;-79
2022/07/11 09:31:44;;;;;;;0.98;0.47;;;20.10;79.10;;;;;;5066997;28;20025;-80
2022/07/11 09:34:13;;;;;;;1.85;0.38;;;20.20;78.90;;;;;;5052551;28;20028;-80
2022/07/11 09:36:45;;;;;;;1.95;0.32;;;20.20;79.20;;;;;;5064772;28;20077;-78
2022/07/11 09:39:14;;;;;;;0.45;0.40;;;20.30;79.10;;;;;;5049010;28;20500;-81
2022/07/11 09:41:40;;;;;;;2.13;0.40;;;20.40;78.90;;;;;;5068574;28;20025;-81
2022/07/11 09:44:33;;;;;;;1.92;0.60;;;20.50;78.90;;;;;;5068533;28;20468;-80
2022/07/11 09:46:59;;;;;;;0.20;0.20;;;20.50;78.70;;;;;;5061992;28;20028;-81
2022/07/11 09:49:36;;;;;;;0.73;0.40;;;20.50;77.70;;;;;;5062106;28;20418;-81
2022/07/11 09:52:16;;;;;;;1.27;0.47;;;20.60;76.70;;;;;;5044350;28;20144;-80
2022/07/11 09:55:01;;;;;;;0.60;0.40;;;20.70;77.50;;;;;;5063497;28;20373;-80
2022/07/11 09:57:37;;;;;;;0.73;0.38;;;20.70;77.80;;;;;;5058248;28;20048;-81
2022/07/11 10:00:05;;;;;;;0.50;0.50;;;20.80;77.70;;;;;;5062044;28;20763;-79
2022/07/11 10:02:32;;;;;;;2.55;0.57;;;20.90;77.70;;;;;;5055813;28;20093;-80
2022/07/11 10:04:59;;;;;;;0.40;0.40;;;21.00;78.10;;;;;;5062153;28;20102;-80
2022/07/11 10:07:25;;;;;;;0.70;0.30;;;21.10;77.50;;;;;;5045336;28;20505;-80
2022/07/11 10:09:50;;;;;;;0.57;0.50;;;21.20;77.40;;;;;;5061623;28;20081;-81
2022/07/11 10:12:17;;;;;;;0.65;0.57;;;21.10;77.50;;;;;;5062832;28;20024;-81
2022/07/11 10:14:44;;;;;;;1.08;0.50;;;21.10;77.70;;;;;;5061681;28;20170;-81
2022/07/11 10:17:29;;;;;;;1.45;0.73;;;21.20;77.50;;;;;;5050548;28;20024;-81
2022/07/11 10:20:15;;;;;;;0.50;0.38;;;21.20;77.60;;;;;;5066925;28;20024;-80
2022/07/11 10:22:50;;;;;;;0.30;0.30;;;21.30;77.50;;;;;;5044374;28;20034;-81
2022/07/11 10:25:25;;;;;;;0.40;0.40;;;21.30;77.00;;;;;;5048434;28;20016;-81
2022/07/11 10:28:09;;;;;;;0.30;0.30;;;21.20;77.00;;;;;;5051101;28;20027;-82
2022/07/11 10:30:46;;;;;;;1.92;0.52;;;21.30;77.10;;;;;;5049861;28;20400;-81
2022/07/11 10:33:13;;;;;;;0.93;0.65;;;21.30;77.60;;;;;;5059720;28;20093;-81
2022/07/11 10:35:48;;;;;;;0.30;0.30;;;21.30;77.30;;;;;;5062904;28;20077;-81
2022/07/11 10:38:14;;;;;;;0.43;0.43;;;21.40;77.20;;;;;;5067070;28;20369;-81
2022/07/11 10:40:51;;;;;;;1.98;0.57;;;21.50;76.50;;;;;;5066307;28;20029;-81
2022/07/11 10:43:25;;;;;;;1.02;0.70;;;21.60;75.80;;;;;;5060162;28;20082;-81
2022/07/11 10:46:07;;;;;;;1.58;0.52;;;21.60;75.90;;;;;;5062835;28;20039;-80
2022/07/11 10:49:06;;;;;;;0.40;0.40;;;21.70;75.60;;;;;;5066233;28;20025;-80
2022/07/11 10:51:38;;;;;;;1.02;0.60;;;21.80;75.60;;;;;;5007106;28;20189;-80
2022/07/11 10:54:26;;;;;;;0.40;0.40;;;22.00;75.30;;;;;;5063234;28;20105;-81
2022/07/11 10:57:27;;;;;;;0.93;0.40;;;22.00;74.70;;;;;;5059588;28;20099;-81
2022/07/11 11:00:01;;;;;;;0.50;0.43;;;22.00;74.60;;;;;;5063304;28;20046;-81
2022/07/11 11:02:27;;;;;;;;;;;22.00;74.40;;;;;;5064933;28;20032;-81
2022/07/11 11:05:03;;;;;;;0.60;0.40;;;22.00;74.20;;;;;;5061907;28;19908;-81
2022/07/11 11:07:44;;;;;;;2.00;0.47;;;22.10;74.50;;;;;;5050156;28;20036;-81
2022/07/11 11:10:18;;;;;;;0.50;0.40;;;22.10;74.50;;;;;;5063744;28;20081;-81
2022/07/11 11:13:06;;;;;;;1.77;0.50;;;22.20;74.40;;;;;;5066032;28;20028;-81
2022/07/11 11:15:42;;;;;;;1.05;0.50;;;22.20;74.30;;;;;;5064625;28;20511;-81
2022/07/11 11:18:23;;;;;;;0.70;0.70;;;22.20;73.90;;;;;;5064513;28;20044;-81
2022/07/11 11:21:07;;;;;;;0.60;0.60;;;22.20;74.00;;;;;;5065558;28;20488;-81
2022/07/11 11:23:35;;;;;;;1.10;0.52;;;22.30;74.20;;;;;;5068321;28;20059;-82
2022/07/11 11:26:18;;;;;;;0.60;0.60;;;22.40;74.20;;;;;;5066502;28;20160;-82
2022/07/11 11:29:05;;;;;;;1.30;0.67;;;22.50;74.00;;;;;;5047824;28;20021;-81
2022/07/11 11:31:32;;;;;;;0.60;0.60;;;22.50;73.50;;;;;;5067788;28;20024;-80
2022/07/11 11:34:00;;;;;;;0.70;0.70;;;22.60;74.10;;;;;;5071045;28;20036;-77
2022/07/11 11:36:27;;;;;;;0.47;0.47;;;22.60;73.40;;;;;;5064741;28;20028;-81
2022/07/11 11:38:54;;;;;;;0.82;0.60;;;22.80;73.60;;;;;;5070381;28;20017;-81
2022/07/11 11:41:25;;;;;;;3.70;1.02;;;22.80;73.10;;;;;;5050107;28;20063;-81
2022/07/11 11:43:52;;;;;;;0.73;0.60;;;22.80;73.20;;;;;;5034007;28;20024;-83
2022/07/11 11:46:17;;;;;;;2.65;0.80;;;22.80;73.30;;;;;;5069086;28;20063;-82
2022/07/11 11:48:46;;;;;;;1.88;0.85;;;22.70;73.20;;;;;;5068052;28;20048;-83
2022/07/11 11:51:16;;;;;;;0.50;0.50;;;22.60;73.00;;;;;;5064049;28;20025;-81
2022/07/11 11:53:48;;;;;;;0.77;0.70;;;22.60;73.30;;;;;;5070453;28;20021;-82
2022/07/11 11:56:21;;;;;;;1.67;0.75;;;22.50;73.50;;;;;;5067093;28;20028;-82
2022/07/11 11:58:48;;;;;;;1.88;0.70;;;22.50;73.80;;;;;;5063001;28;20028;-82
2022/07/11 12:01:19;;;;;;;1.05;0.70;;;22.50;72.90;;;;;;5046436;28;20541;-82
2022/07/11 12:04:02;;;;;;;3.03;0.80;;;22.60;73.40;;;;;;5068337;28;20054;-82
2022/07/11 12:06:30;;;;;;;2.70;0.73;;;22.50;73.70;;;;;;5046576;28;20664;-81
2022/07/11 12:12:52;;;;;;;1.67;0.75;;;22.50;74.30;;;;;;5070805;28;20051;-82
2022/07/11 12:15:27;;;;;;;1.50;0.98;;;22.50;73.70;;;;;;5065601;28;20017;-82
2022/07/11 12:17:55;;;;;;;0.93;0.60;;;22.40;74.20;;;;;;5059788;28;20028;-82
2022/07/11 12:20:42;;;;;;;0.82;0.65;;;22.40;74.10;;;;;;5060838;28;20561;-82
2022/07/11 12:23:11;;;;;;;4.53;0.95;;;22.50;74.30;;;;;;5062189;28;20471;-83
2022/07/11 12:25:38;;;;;;;0.77;0.63;;;22.60;73.70;;;;;;5059571;28;20028;-82
2022/07/11 12:28:04;;;;;;;1.08;0.63;;;22.60;73.50;;;;;;5064086;28;20066;-81
2022/07/11 12:30:30;;;;;;;0.98;0.63;;;22.70;73.00;;;;;;5069432;28;20211;-82
2022/07/11 12:33:07;;;;;;;2.38;0.70;;;22.80;73.50;;;;;;5065400;28;20029;-82
2022/07/11 12:35:33;;;;;;;1.52;0.90;;;22.90;72.50;;;;;;5060214;28;20054;-81
2022/07/11 12:37:59;;;;;;;1.17;0.80;;;22.90;72.50;;;;;;5054947;28;20028;-82
2022/07/11 12:40:25;;;;;;;1.30;0.90;;;22.90;72.60;;;;;;5059752;28;20029;-82
2022/07/11 12:42:50;;;;;;;2.90;0.77;;;22.90;72.70;;;;;;5051488;28;20033;-82
2022/07/11 12:45:17;;;;;;;1.45;0.73;;;23.00;73.40;;;;;;5070000;28;20035;-82
2022/07/11 12:47:51;;;;;;;0.85;0.60;;;23.00;72.90;;;;;;5061762;28;20044;-81
2022/07/11 12:50:19;;;;;;;1.63;1.20;;;23.10;72.70;;;;;;5061806;28;20029;-82
2022/07/11 12:52:48;;;;;;;1.00;0.85;;;23.10;72.70;;;;;;5060364;28;20025;-82
2022/07/11 12:55:24;;;;;;;1.42;0.88;;;23.00;72.70;;;;;;5064131;28;20016;-82
2022/07/11 12:58:06;;;;;;;1.05;0.65;;;23.00;72.80;;;;;;5060928;28;20027;-82
2022/07/11 13:00:32;;;;;;;1.38;0.80;;;22.90;73.20;;;;;;5063983;28;20024;-82
2022/07/11 13:02:59;;;;;;;1.48;1.00;;;23.00;73.20;;;;;;5070608;28;20119;-82
2022/07/11 13:05:25;;;;;;;1.48;1.08;;;23.10;73.20;;;;;;5070234;28;20024;-82
2022/07/11 13:10:51;;;;;;;1.23;0.70;;;23.20;73.10;;;;;;5007494;28;20516;-82